Aviation Digital Data Service (ADDS)

Output produced by METARs form (0029 UTC 19 November 2018)
found at http://www.aviationweather.gov/metar/data/
 
EGPF 190020Z AUTO 08003KT 9999 NCD 04/03 Q1032
EGPF 182350Z AUTO 07004KT 9999 SCT021 04/03 Q1033
TAF EGPF 182258Z 1900/1924 07008KT 9999 SCT018 
     TEMPO 1900/1909 7000 
     PROB30 
     TEMPO 1900/1903 BKN012